createdAt,value
2018-08-03T00:01:50.500Z,101767.23
2018-08-03T00:04:18.515Z,101762.38
2018-08-03T00:06:46.556Z,101763.20
2018-08-03T00:09:16.132Z,101761.34
2018-08-03T00:11:44.139Z,101760.99
2018-08-03T00:14:12.172Z,101765.31
2018-08-03T00:16:40.204Z,101757.29
2018-08-03T00:19:08.230Z,101759.95
2018-08-03T00:21:36.245Z,101753.45
2018-08-03T00:24:05.021Z,101751.61
2018-08-03T00:26:33.055Z,101755.21
2018-08-03T00:29:01.218Z,101758.66
2018-08-03T00:31:29.243Z,101752.67
2018-08-03T00:33:57.266Z,101750.95
2018-08-03T00:36:25.287Z,101748.94
2018-08-03T00:38:53.333Z,101749.42
2018-08-03T00:41:21.345Z,101758.42
2018-08-03T00:43:49.367Z,101750.59
2018-08-03T00:46:17.392Z,101748.87
2018-08-03T00:48:45.408Z,101745.87
2018-08-03T00:51:13.430Z,101748.67
2018-08-03T00:53:41.452Z,101748.84
2018-08-03T00:56:09.468Z,101742.50
2018-08-03T00:58:37.493Z,101744.48
2018-08-03T01:01:05.511Z,101746.45
2018-08-03T01:03:33.528Z,101735.89
2018-08-03T01:06:01.535Z,101732.06
2018-08-03T01:08:29.557Z,101732.06
2018-08-03T01:10:57.572Z,101738.23
2018-08-03T01:13:25.584Z,101732.70
2018-08-03T01:15:53.608Z,101737.19
2018-08-03T01:18:21.629Z,101728.19
2018-08-03T01:20:49.652Z,101731.02
2018-08-03T01:23:17.680Z,101732.83
2018-08-03T01:25:45.697Z,101732.95
2018-08-03T01:28:13.704Z,101739.56
2018-08-03T01:30:41.734Z,101736.70
2018-08-03T01:33:09.766Z,101740.34
2018-08-03T01:35:37.791Z,101740.49
2018-08-03T01:38:05.921Z,101734.00
2018-08-03T01:40:33.941Z,101741.45
2018-08-03T01:43:01.964Z,101737.42
2018-08-03T01:45:29.981Z,101735.66
2018-08-03T01:47:57.999Z,101731.63
2018-08-03T01:50:26.056Z,101731.25
2018-08-03T01:52:54.105Z,101730.89
2018-08-03T01:55:22.152Z,101733.22
2018-08-03T01:57:50.349Z,101734.19
2018-08-03T02:00:18.509Z,101729.19
2018-08-03T02:02:46.555Z,101725.95
2018-08-03T02:05:14.576Z,101728.41
2018-08-03T02:07:42.728Z,101733.36
2018-08-03T02:10:10.925Z,101731.70
2018-08-03T02:12:39.004Z,101731.34
2018-08-03T02:15:07.389Z,101734.11
2018-08-03T02:17:35.481Z,101733.58
2018-08-03T02:20:03.547Z,101738.05
2018-08-03T02:22:31.565Z,101739.48
2018-08-03T02:24:59.600Z,101736.08
2018-08-03T02:27:27.627Z,101731.04
2018-08-03T02:29:55.648Z,101734.49
2018-08-03T02:32:23.672Z,101738.96
2018-08-03T02:34:51.689Z,101732.72
2018-08-03T02:37:19.701Z,101731.82
2018-08-03T02:39:47.718Z,101740.04
2018-08-03T02:42:15.888Z,101731.09
2018-08-03T02:44:43.967Z,101735.93
2018-08-03T02:47:11.990Z,101735.08
2018-08-03T02:49:40.035Z,101737.05
2018-08-03T02:52:08.180Z,101740.67
2018-08-03T02:54:36.197Z,101741.31
2018-08-03T02:57:05.124Z,101742.73
2018-08-03T02:59:33.135Z,101740.56
2018-08-03T03:02:01.161Z,101733.38
2018-08-03T03:04:29.177Z,101741.50
2018-08-03T03:06:57.212Z,101738.48
2018-08-03T03:09:25.234Z,101739.80
2018-08-03T03:11:53.260Z,101746.81
2018-08-03T03:14:21.275Z,101737.15
2018-08-03T03:16:49.317Z,101736.45
2018-08-03T03:19:17.387Z,101741.44
2018-08-03T03:21:45.363Z,101739.42
2018-08-03T03:24:13.385Z,101739.36
2018-08-03T03:26:41.402Z,101744.94
2018-08-03T03:29:09.430Z,101731.75
2018-08-03T03:31:37.457Z,101739.08
2018-08-03T03:34:05.480Z,101743.55
2018-08-03T03:36:33.556Z,101746.50
2018-08-03T03:39:01.636Z,101743.64
2018-08-03T03:41:29.644Z,101741.46
2018-08-03T03:43:57.672Z,101739.44
2018-08-03T03:46:25.692Z,101735.39
2018-08-03T03:48:53.720Z,101736.95
2018-08-03T03:51:21.729Z,101738.91
2018-08-03T03:53:49.760Z,101733.24
2018-08-03T03:56:17.787Z,101737.73
2018-08-03T03:58:45.804Z,101733.17
2018-08-03T04:01:13.815Z,101731.52
2018-08-03T04:03:41.881Z,101734.17
2018-08-03T04:06:09.863Z,101737.09
2018-08-03T04:08:37.904Z,101736.55
2018-08-03T04:11:06.044Z,101736.62
2018-08-03T04:13:33.952Z,101730.37
2018-08-03T04:16:01.980Z,101734.02
2018-08-03T04:18:30.000Z,101736.75
2018-08-03T04:20:58.021Z,101736.05
2018-08-03T04:23:26.040Z,101737.16
2018-08-03T04:25:54.072Z,101739.81
2018-08-03T04:28:22.100Z,101732.95
2018-08-03T04:30:50.152Z,101731.01
2018-08-03T04:33:18.224Z,101734.22
2018-08-03T04:35:46.409Z,101736.87
2018-08-03T04:38:14.459Z,101742.39
2018-08-03T04:40:42.469Z,101737.16
2018-08-03T04:43:10.493Z,101741.33
2018-08-03T04:45:38.532Z,101735.06
2018-08-03T04:48:06.612Z,101735.91
2018-08-03T04:50:34.652Z,101741.55
2018-08-03T04:53:02.686Z,101738.82
2018-08-03T04:55:30.703Z,101731.08
2018-08-03T04:57:58.727Z,101731.00
2018-08-03T05:00:26.744Z,101740.50
2018-08-03T05:02:54.777Z,101733.12
2018-08-03T05:05:22.793Z,101731.16
2018-08-03T05:07:50.908Z,101737.79
2018-08-03T05:10:18.925Z,101733.60
2018-08-03T05:12:46.954Z,101739.76
2018-08-03T05:15:14.972Z,101741.90
2018-08-03T05:17:43.008Z,101744.77
2018-08-03T05:20:11.049Z,101750.23
2018-08-03T05:22:39.082Z,101745.41
2018-08-03T05:25:07.216Z,101746.25
2018-08-03T05:27:35.258Z,101755.87
2018-08-03T05:30:03.295Z,101746.31
2018-08-03T05:32:31.374Z,101754.98
2018-08-03T05:34:59.441Z,101757.16
2018-08-03T05:37:27.469Z,101756.30
2018-08-03T05:39:55.629Z,101756.30
2018-08-03T05:42:23.675Z,101757.27
2018-08-03T05:44:51.678Z,101754.91
2018-08-03T05:47:19.704Z,101757.83
2018-08-03T05:49:47.757Z,101750.72
2018-08-03T05:52:22.104Z,101749.05
2018-08-03T05:54:50.076Z,101753.22
2018-08-03T05:57:18.124Z,101753.98
2018-08-03T05:59:46.297Z,101760.98
2018-08-03T06:02:14.308Z,101763.41
2018-08-03T06:04:42.329Z,101760.00
2018-08-03T06:07:10.346Z,101762.14
2018-08-03T06:09:38.410Z,101766.13
2018-08-03T06:12:06.714Z,101767.38
2018-08-03T06:14:34.736Z,101762.33
2018-08-03T06:17:02.766Z,101754.80
2018-08-03T06:19:31.232Z,101759.84
2018-08-03T06:21:59.256Z,101759.85
2018-08-03T06:24:27.276Z,101760.86
2018-08-03T06:26:55.299Z,101760.80
2018-08-03T06:29:23.347Z,101763.13
2018-08-03T06:31:51.369Z,101764.64
2018-08-03T06:34:19.405Z,101762.14
2018-08-03T06:36:47.417Z,101764.45
2018-08-03T06:39:15.450Z,101761.09
2018-08-03T06:41:43.872Z,101769.72
2018-08-03T06:44:11.882Z,101758.23
2018-08-03T06:46:39.908Z,101765.19
2018-08-03T06:49:07.932Z,101768.97
2018-08-03T06:51:35.952Z,101768.07
2018-08-03T06:54:04.951Z,101761.33
2018-08-03T06:56:33.184Z,101764.13
2018-08-03T06:59:01.337Z,101765.22
2018-08-03T07:01:29.337Z,101767.77
2018-08-03T07:03:57.349Z,101760.86
2018-08-03T07:06:25.373Z,101761.25
2018-08-03T07:08:53.405Z,101763.43
2018-08-03T07:11:21.421Z,101763.10
2018-08-03T07:13:49.447Z,101765.59
2018-08-03T07:16:17.460Z,101761.39
2018-08-03T07:18:45.498Z,101755.89
2018-08-03T07:21:13.757Z,101760.18
2018-08-03T07:23:41.818Z,101759.97
2018-08-03T07:26:09.852Z,101753.33
2018-08-03T07:28:38.136Z,101756.23
2018-08-03T07:31:06.160Z,101758.70
2018-08-03T07:33:34.212Z,101754.20
2018-08-03T07:36:02.223Z,101759.75
2018-08-03T07:38:30.254Z,101757.53
2018-08-03T07:40:58.433Z,101759.49
2018-08-03T07:43:26.506Z,101749.97
2018-08-03T07:45:54.482Z,101756.97
2018-08-03T07:48:22.502Z,101762.52
2018-08-03T07:50:50.509Z,101761.33
2018-08-03T07:53:18.517Z,101765.56
2018-08-03T07:55:46.534Z,101768.47
2018-08-03T07:58:14.548Z,101766.09
2018-08-03T08:00:42.561Z,101761.48
2018-08-03T08:03:10.628Z,101758.64
2018-08-03T08:05:38.634Z,101764.09
2018-08-03T08:08:06.664Z,101760.35
2018-08-03T08:10:34.688Z,101762.05
2018-08-03T08:13:02.708Z,101761.05
2018-08-03T08:15:30.733Z,101754.36
2018-08-03T08:17:58.744Z,101758.55
2018-08-03T08:20:26.756Z,101759.27
2018-08-03T08:22:54.788Z,101749.73
2018-08-03T08:25:22.804Z,101751.06
2018-08-03T08:27:50.948Z,101754.59
2018-08-03T08:30:18.993Z,101753.30
2018-08-03T08:32:47.004Z,101745.01
2018-08-03T08:35:15.089Z,101746.36
2018-08-03T08:37:43.246Z,101748.86
2018-08-03T08:40:11.273Z,101749.66
2018-08-03T08:42:39.293Z,101743.57
2018-08-03T08:45:13.977Z,101744.45
2018-08-03T08:47:41.984Z,101741.00
2018-08-03T08:50:10.417Z,101746.38
2018-08-03T08:52:38.478Z,101742.94
2018-08-03T08:55:06.446Z,101743.94
2018-08-03T08:57:34.570Z,101737.33
2018-08-03T09:00:02.584Z,101739.55
2018-08-03T09:02:30.600Z,101736.19
2018-08-03T09:04:58.772Z,101738.89
2018-08-03T09:07:26.827Z,101734.30
2018-08-03T09:09:54.841Z,101738.05
2018-08-03T09:12:22.872Z,101730.95
2018-08-03T09:14:50.900Z,101727.52
2018-08-03T09:17:18.919Z,101727.12
2018-08-03T09:19:47.362Z,101728.73
2018-08-03T09:22:15.425Z,101719.86
2018-08-03T09:24:43.513Z,101722.73
2018-08-03T09:27:11.772Z,101714.64
2018-08-03T09:29:39.781Z,101713.34
2018-08-03T09:32:07.784Z,101710.12
2018-08-03T09:34:35.905Z,101715.63
2018-08-03T09:37:04.849Z,101710.85
2018-08-03T09:39:32.856Z,101709.78
2018-08-03T09:42:00.880Z,101708.27
2018-08-03T09:44:28.894Z,101709.34
2018-08-03T09:46:56.908Z,101704.52
2018-08-03T09:49:24.944Z,101706.57
2018-08-03T09:51:52.987Z,101698.63
2018-08-03T09:54:21.014Z,101699.13
2018-08-03T09:56:48.997Z,101697.06
2018-08-03T09:59:17.001Z,101694.06
2018-08-03T10:01:45.053Z,101697.85
2018-08-03T10:04:13.024Z,101695.08
2018-08-03T10:06:41.040Z,101691.16
2018-08-03T10:09:09.240Z,101691.77
2018-08-03T10:11:37.260Z,101697.92
2018-08-03T10:14:05.267Z,101689.54
2018-08-03T10:16:33.289Z,101685.16
2018-08-03T10:19:01.300Z,101687.97
2018-08-03T10:21:29.778Z,101681.86
2018-08-03T10:23:57.792Z,101689.05
2018-08-03T10:26:25.844Z,101685.89
2018-08-03T10:28:54.209Z,101685.12
2018-08-03T10:31:22.237Z,101685.34
2018-08-03T10:33:50.277Z,101680.10
2018-08-03T10:36:18.286Z,101685.55
2018-08-03T10:38:46.340Z,101682.86
2018-08-03T10:41:14.355Z,101671.20
2018-08-03T10:43:42.377Z,101676.24
2018-08-03T10:46:10.780Z,101672.94
2018-08-03T10:48:38.871Z,101671.34
2018-08-03T10:51:07.173Z,101669.98
2018-08-03T10:53:35.180Z,101666.88
2018-08-03T10:56:03.219Z,101665.09
2018-08-03T10:58:31.245Z,101655.95
2018-08-03T11:00:59.249Z,101658.57
2018-08-03T11:03:27.268Z,101659.74
2018-08-03T11:05:55.260Z,101641.14
2018-08-03T11:08:23.260Z,101653.44
2018-08-03T11:10:51.289Z,101653.63
2018-08-03T11:13:19.287Z,101652.86
2018-08-03T11:15:47.308Z,101654.47
2018-08-03T11:18:15.336Z,101643.41
2018-08-03T11:20:43.344Z,101638.69
2018-08-03T11:23:11.344Z,101645.95
2018-08-03T11:25:40.213Z,101641.59
2018-08-03T11:28:08.228Z,101644.38
2018-08-03T11:30:36.241Z,101638.66
2018-08-03T11:33:04.553Z,101637.67
2018-08-03T11:35:32.570Z,101638.75
2018-08-03T11:38:00.573Z,101635.14
2018-08-03T11:40:28.629Z,101639.98
2018-08-03T11:42:56.660Z,101628.48
2018-08-03T11:45:24.680Z,101631.50
2018-08-03T11:47:52.696Z,101620.97
2018-08-03T11:50:20.760Z,101621.47
2018-08-03T11:52:48.776Z,101624.46
2018-08-03T11:55:16.780Z,101616.95
2018-08-03T11:57:44.784Z,101615.28
2018-08-03T12:00:13.103Z,101602.66
2018-08-03T12:02:41.120Z,101600.64
2018-08-03T12:05:09.200Z,101600.34
2018-08-03T12:07:37.493Z,101613.13
2018-08-03T12:10:05.709Z,101607.25
2018-08-03T12:12:33.769Z,101603.02
2018-08-03T12:15:04.356Z,101601.33
2018-08-03T12:17:32.364Z,101598.48
2018-08-03T12:20:00.396Z,101592.75
2018-08-03T12:22:28.503Z,101592.19
2018-08-03T12:24:56.540Z,101589.45
2018-08-03T12:27:24.548Z,101589.92
2018-08-03T12:29:52.564Z,101599.14
2018-08-03T12:32:20.724Z,101590.55
2018-08-03T12:34:48.730Z,101586.16
2018-08-03T12:37:16.736Z,101587.16
2018-08-03T12:39:44.752Z,101585.15
2018-08-03T12:42:12.792Z,101583.36
2018-08-03T12:44:40.844Z,101580.69
2018-08-03T12:47:08.864Z,101578.34
2018-08-03T12:49:36.892Z,101581.47
2018-08-03T12:52:04.918Z,101571.91
2018-08-03T12:54:32.958Z,101574.06
2018-08-03T12:57:00.948Z,101568.97
2018-08-03T12:59:28.982Z,101566.86
2018-08-03T13:01:56.976Z,101569.37
2018-08-03T13:04:24.981Z,101556.72
2018-08-03T13:06:52.984Z,101562.26
2018-08-03T13:09:21.264Z,101565.90
2018-08-03T13:11:49.272Z,101566.54
2018-08-03T13:14:17.446Z,101562.76
2018-08-03T13:16:45.443Z,101561.45
2018-08-03T13:19:13.441Z,101560.92
2018-08-03T13:21:42.344Z,101554.42
2018-08-03T13:24:10.356Z,101556.73
2018-08-03T13:26:38.360Z,101546.19
2018-08-03T13:29:06.440Z,101540.77
2018-08-03T13:31:34.478Z,101552.52
2018-08-03T13:34:02.511Z,101543.93
2018-08-03T13:36:31.312Z,101544.78
2018-08-03T13:38:59.813Z,101532.30
2018-08-03T13:41:27.844Z,101530.91
2018-08-03T13:43:56.050Z,101524.44
2018-08-03T13:46:24.084Z,101520.84
2018-08-03T13:48:52.113Z,101517.42
2018-08-03T13:51:20.432Z,101510.70
2018-08-03T13:53:48.880Z,101517.78
2018-08-03T13:56:17.690Z,101520.23
2018-08-03T13:58:46.440Z,101513.98
2018-08-03T14:01:26.091Z,101509.16
2018-08-03T14:03:54.333Z,101513.83
2018-08-03T14:06:22.716Z,101510.75
2018-08-03T14:08:50.741Z,101501.08
2018-08-03T14:11:19.348Z,101506.08
2018-08-03T14:13:47.665Z,101505.86
2018-08-03T14:16:15.889Z,101503.05
2018-08-03T14:18:44.834Z,101506.59
2018-08-03T14:21:12.888Z,101501.73
2018-08-03T14:23:40.938Z,101496.98
2018-08-03T14:26:08.964Z,101491.86
2018-08-03T14:28:37.019Z,101491.11
2018-08-03T14:31:05.040Z,101489.09
2018-08-03T14:33:33.089Z,101480.24
2018-08-03T14:36:01.144Z,101475.50
2018-08-03T14:38:29.166Z,101476.86
2018-08-03T14:40:57.194Z,101475.75
2018-08-03T14:43:25.226Z,101473.30
2018-08-03T14:45:53.273Z,101473.78
2018-08-03T14:48:21.300Z,101476.03
2018-08-03T14:50:49.416Z,101470.80
2018-08-03T14:53:17.439Z,101471.07
2018-08-03T14:55:45.512Z,101470.45
2018-08-03T14:58:13.537Z,101468.34
2018-08-03T15:00:41.577Z,101466.85
2018-08-03T15:03:09.614Z,101460.88
2018-08-03T15:05:37.638Z,101456.27
2018-08-03T15:08:05.684Z,101455.96
2018-08-03T15:10:33.693Z,101455.19
2018-08-03T15:13:01.725Z,101453.46
2018-08-03T15:15:29.788Z,101450.06
2018-08-03T15:17:57.832Z,101453.31
2018-08-03T15:20:26.207Z,101449.17
2018-08-03T15:22:54.232Z,101445.66
2018-08-03T15:25:22.430Z,101445.15
2018-08-03T15:27:50.458Z,101445.19
2018-08-03T15:30:18.492Z,101450.55
2018-08-03T15:32:46.533Z,101437.52
2018-08-03T15:35:14.634Z,101434.58
2018-08-03T15:37:42.593Z,101445.34
2018-08-03T15:40:10.716Z,101443.45
2018-08-03T15:42:38.795Z,101435.83
2018-08-03T15:45:07.754Z,101441.27
2018-08-03T15:47:36.408Z,101438.28
2018-08-03T15:50:05.055Z,101444.64
2018-08-03T15:52:33.084Z,101438.47
2018-08-03T15:55:01.134Z,101437.80
2018-08-03T15:57:29.164Z,101437.97
2018-08-03T15:59:57.202Z,101434.61
2018-08-03T16:02:25.249Z,101435.92
2018-08-03T16:04:53.430Z,101431.27
2018-08-03T16:07:21.576Z,101432.88
2018-08-03T16:09:49.616Z,101425.91
2018-08-03T16:12:17.777Z,101419.63
2018-08-03T16:14:46.001Z,101418.33
2018-08-03T16:17:14.037Z,101415.61
2018-08-03T16:19:42.063Z,101423.64
2018-08-03T16:22:10.360Z,101418.73
2018-08-03T16:24:38.520Z,101415.97
2018-08-03T16:27:06.553Z,101411.20
2018-08-03T16:29:34.758Z,101409.07
2018-08-03T16:32:02.838Z,101410.16
2018-08-03T16:34:30.869Z,101410.83
2018-08-03T16:36:58.897Z,101406.55
2018-08-03T16:39:26.921Z,101405.63
2018-08-03T16:41:55.949Z,101400.56
2018-08-03T16:44:23.979Z,101408.69
2018-08-03T16:46:52.008Z,101401.30
2018-08-03T16:49:20.019Z,101404.50
2018-08-03T16:51:48.053Z,101396.91
2018-08-03T16:54:16.100Z,101402.78
2018-08-03T16:56:44.133Z,101403.20
2018-08-03T16:59:12.163Z,101403.09
2018-08-03T17:01:40.202Z,101396.70
2018-08-03T17:04:08.244Z,101401.70
2018-08-03T17:06:36.273Z,101402.25
2018-08-03T17:09:07.510Z,101399.63
2018-08-03T17:11:35.549Z,101405.05
2018-08-03T17:14:03.593Z,101405.34
2018-08-03T17:16:32.217Z,101400.30
2018-08-03T17:19:00.255Z,101402.33
2018-08-03T17:21:28.288Z,101404.91
2018-08-03T17:23:56.328Z,101398.31
2018-08-03T17:26:24.369Z,101405.25
2018-08-03T17:28:52.407Z,101407.05
2018-08-03T17:31:20.440Z,101405.73
2018-08-03T17:33:48.480Z,101406.91
2018-08-03T17:36:16.522Z,101410.36
2018-08-03T17:38:44.545Z,101407.69
2018-08-03T17:41:12.585Z,101404.75
2018-08-03T17:43:40.710Z,101402.08
2018-08-03T17:46:08.753Z,101408.40
2018-08-03T17:48:36.805Z,101400.36
2018-08-03T17:51:04.840Z,101395.02
2018-08-03T17:53:32.869Z,101398.23
2018-08-03T17:56:00.901Z,101395.68
2018-08-03T17:58:28.949Z,101392.78
2018-08-03T18:00:56.989Z,101387.80
2018-08-03T18:03:25.355Z,101387.36
2018-08-03T18:05:53.357Z,101394.17
2018-08-03T18:08:21.393Z,101390.88
2018-08-03T18:10:49.416Z,101393.41
2018-08-03T18:13:17.460Z,101395.98
2018-08-03T18:15:45.494Z,101398.16
2018-08-03T18:18:13.520Z,101398.36
2018-08-03T18:20:41.558Z,101406.18
2018-08-03T18:23:09.585Z,101399.53
2018-08-03T18:25:37.610Z,101394.33
2018-08-03T18:28:05.652Z,101404.59
2018-08-03T18:30:33.690Z,101402.62
2018-08-03T18:33:01.731Z,101399.59
2018-08-03T18:35:29.761Z,101403.77
2018-08-03T18:37:57.812Z,101400.28
2018-08-03T18:40:25.853Z,101401.87
2018-08-03T18:42:53.890Z,101406.05
2018-08-03T18:45:21.931Z,101401.05
2018-08-03T18:47:49.972Z,101403.58
2018-08-03T18:50:18.028Z,101407.76
2018-08-03T18:52:46.071Z,101412.89
2018-08-03T18:55:14.109Z,101410.77
2018-08-03T18:57:42.125Z,101414.84
2018-08-03T19:00:10.152Z,101417.06
2018-08-03T19:02:38.184Z,101411.62
2018-08-03T19:05:06.649Z,101418.27
2018-08-03T19:07:34.695Z,101424.30
2018-08-03T19:10:02.802Z,101426.92
2018-08-03T19:12:30.743Z,101431.06
2018-08-03T19:14:58.767Z,101427.24
2018-08-03T19:17:26.784Z,101430.67
2018-08-03T19:19:54.806Z,101427.68
2018-08-03T19:22:22.857Z,101431.31
2018-08-03T19:24:50.902Z,101432.77
2018-08-03T19:27:18.949Z,101438.44
2018-08-03T19:29:46.994Z,101437.30
2018-08-03T19:32:15.039Z,101438.95
2018-08-03T19:34:43.068Z,101443.31
2018-08-03T19:37:11.115Z,101445.16
2018-08-03T19:39:39.314Z,101446.10
2018-08-03T19:42:07.363Z,101451.70
2018-08-03T19:44:35.378Z,101451.17
2018-08-03T19:47:03.463Z,101457.55
2018-08-03T19:49:31.481Z,101456.81
2018-08-03T19:51:59.528Z,101456.77
2018-08-03T19:54:27.589Z,101457.88
2018-08-03T19:56:55.616Z,101464.98
2018-08-03T19:59:23.745Z,101464.86
2018-08-03T20:01:51.704Z,101462.02
2018-08-03T20:04:19.763Z,101471.52
2018-08-03T20:06:47.824Z,101467.57
2018-08-03T20:09:15.817Z,101464.97
2018-08-03T20:11:43.833Z,101472.36
2018-08-03T20:14:11.963Z,101470.84
2018-08-03T20:16:39.993Z,101468.45
2018-08-03T20:19:08.017Z,101472.89
2018-08-03T20:21:36.049Z,101462.09
2018-08-03T20:24:04.965Z,101460.75
2018-08-03T20:26:33.020Z,101454.41
2018-08-03T20:29:01.060Z,101458.93
2018-08-03T20:31:29.106Z,101459.28
2018-08-03T20:33:57.172Z,101459.44
2018-08-03T20:36:25.230Z,101459.02
2018-08-03T20:38:53.972Z,101458.98
2018-08-03T20:41:22.019Z,101459.77
2018-08-03T20:43:50.059Z,101465.31
2018-08-03T20:46:18.081Z,101468.06
2018-08-03T20:48:46.102Z,101470.38
2018-08-03T20:51:14.148Z,101470.78
2018-08-03T20:53:42.178Z,101465.78
2018-08-03T20:56:10.204Z,101468.60
2018-08-03T20:58:38.372Z,101462.80
2018-08-03T21:01:06.565Z,101458.00
2018-08-03T21:03:34.633Z,101452.69
2018-08-03T21:06:02.826Z,101448.06
2018-08-03T21:08:30.865Z,101455.81
2018-08-03T21:10:58.882Z,101454.13
2018-08-03T21:13:26.966Z,101451.20
2018-08-03T21:15:55.000Z,101452.91
2018-08-03T21:18:23.029Z,101453.31
2018-08-03T21:20:51.065Z,101452.53
2018-08-03T21:23:19.239Z,101449.07
2018-08-03T21:25:47.284Z,101457.71
2018-08-03T21:28:15.309Z,101449.39
2018-08-03T21:30:43.569Z,101452.63
2018-08-03T21:33:11.613Z,101455.38
2018-08-03T21:35:39.779Z,101455.48
2018-08-03T21:38:07.828Z,101452.21
2018-08-03T21:40:35.867Z,101458.13
2018-08-03T21:43:04.568Z,101451.00
2018-08-03T21:45:33.204Z,101444.94
2018-08-03T21:48:01.246Z,101449.17
2018-08-03T21:50:29.291Z,101447.08
2018-08-03T21:52:57.443Z,101444.98
2018-08-03T21:55:25.496Z,101451.09
2018-08-03T21:57:53.545Z,101454.45
2018-08-03T22:00:22.887Z,101449.84
2018-08-03T22:02:50.957Z,101452.91
2018-08-03T22:05:18.999Z,101458.47
2018-08-03T22:07:47.460Z,101457.52
2018-08-03T22:10:15.488Z,101455.73
2018-08-03T22:12:43.717Z,101464.37
2018-08-03T22:15:11.765Z,101467.47
2018-08-03T22:17:39.809Z,101468.20
2018-08-03T22:20:08.030Z,101470.44
2018-08-03T22:22:36.304Z,101465.84
2018-08-03T22:25:04.997Z,101473.87
2018-08-03T22:27:33.044Z,101472.56
2018-08-03T22:30:01.074Z,101477.30
2018-08-03T22:32:29.183Z,101475.33
2018-08-03T22:34:57.156Z,101477.09
2018-08-03T22:37:25.192Z,101473.45
2018-08-03T22:39:53.275Z,101469.44
2018-08-03T22:42:21.331Z,101472.45
2018-08-03T22:44:49.352Z,101470.12
2018-08-03T22:47:17.388Z,101473.87
2018-08-03T22:49:45.457Z,101473.73
2018-08-03T22:52:13.488Z,101468.04
2018-08-03T22:54:41.536Z,101482.43
2018-08-03T22:57:09.564Z,101476.63
2018-08-03T22:59:38.060Z,101486.67
2018-08-03T23:02:07.897Z,101484.71
2018-08-03T23:04:36.483Z,101481.55
2018-08-03T23:07:04.972Z,101490.79
2018-08-03T23:09:33.018Z,101492.99
2018-08-03T23:12:01.292Z,101497.83
2018-08-03T23:14:29.340Z,101494.70
2018-08-03T23:16:57.380Z,101490.69
2018-08-03T23:19:25.489Z,101491.84
2018-08-03T23:21:53.524Z,101487.53
2018-08-03T23:24:21.564Z,101493.84
2018-08-03T23:26:49.607Z,101500.39
2018-08-03T23:29:17.635Z,101495.71
2018-08-03T23:31:46.109Z,101491.53
2018-08-03T23:34:14.182Z,101490.87
2018-08-03T23:36:42.273Z,101491.54
2018-08-03T23:39:10.448Z,101488.20
2018-08-03T23:41:38.614Z,101485.53
2018-08-03T23:44:06.637Z,101482.38
2018-08-03T23:46:34.661Z,101480.02
2018-08-03T23:49:02.770Z,101482.70
2018-08-03T23:51:30.812Z,101479.54
2018-08-03T23:53:58.846Z,101474.70
2018-08-03T23:56:26.875Z,101470.03
2018-08-03T23:59:01.473Z,101473.05
